sensor_id;sensor_type;location;lat;lon;timestamp;pressure;altitude;pressure_sealevel;temperature;humidity
54270;BME280;40181;51.560;13.000;2023-04-20T00:00:31;101071.88;;;5.63;100.00
54270;BME280;40181;51.560;13.000;2023-04-20T00:03:00;101069.31;;;5.64;100.00
54270;BME280;40181;51.560;13.000;2023-04-20T00:05:32;101072.09;;;5.67;100.00
54270;BME280;40181;51.560;13.000;2023-04-20T00:08:02;101064.19;;;5.66;100.00
54270;BME280;40181;51.560;13.000;2023-04-20T00:10:31;101062.34;;;5.63;100.00
54270;BME280;40181;51.560;13.000;2023-04-20T00:13:00;101065.88;;;5.44;100.00
54270;BME280;40181;51.560;13.000;2023-04-20T00:15:30;101063.53;;;5.50;100.00
54270;BME280;40181;51.560;13.000;2023-04-20T00:17:59;101049.63;;;5.50;100.00
54270;BME280;40181;51.560;13.000;2023-04-20T00:20:28;101064.69;;;5.57;100.00
54270;BME280;40181;51.560;13.000;2023-04-20T00:23:01;101049.38;;;5.65;100.00
54270;BME280;40181;51.560;13.000;2023-04-20T00:25:30;101053.31;;;5.55;100.00
54270;BME280;40181;51.560;13.000;2023-04-20T00:27:59;101053.47;;;5.38;100.00
54270;BME280;40181;51.560;13.000;2023-04-20T00:30:29;101050.50;;;5.50;100.00
54270;BME280;40181;51.560;13.000;2023-04-20T00:32:58;101052.44;;;5.54;100.00
54270;BME280;40181;51.560;13.000;2023-04-20T00:35:27;101048.47;;;5.43;100.00
54270;BME280;40181;51.560;13.000;2023-04-20T00:37:59;101046.38;;;5.56;100.00
54270;BME280;40181;51.560;13.000;2023-04-20T00:40:28;101054.84;;;5.50;100.00
54270;BME280;40181;51.560;13.000;2023-04-20T00:43:08;101046.84;;;5.45;100.00
54270;BME280;40181;51.560;13.000;2023-04-20T00:45:37;101044.41;;;5.50;100.00
54270;BME280;40181;51.560;13.000;2023-04-20T00:48:06;101038.69;;;5.59;100.00
54270;BME280;40181;51.560;13.000;2023-04-20T00:50:37;101047.59;;;5.64;100.00
54270;BME280;40181;51.560;13.000;2023-04-20T00:53:09;101041.84;;;5.51;100.00
54270;BME280;40181;51.560;13.000;2023-04-20T00:55:42;101043.50;;;5.49;100.00
54270;BME280;40181;51.560;13.000;2023-04-20T00:58:11;101036.47;;;5.68;100.00
54270;BME280;40181;51.560;13.000;2023-04-20T01:00:40;101032.84;;;5.64;100.00
54270;BME280;40181;51.560;13.000;2023-04-20T01:03:09;101035.25;;;5.60;100.00
54270;BME280;40181;51.560;13.000;2023-04-20T01:05:39;101038.88;;;5.63;100.00
54270;BME280;40181;51.560;13.000;2023-04-20T01:08:11;101032.72;;;5.61;100.00
54270;BME280;40181;51.560;13.000;2023-04-20T01:10:40;101032.56;;;5.79;100.00
54270;BME280;40181;51.560;13.000;2023-04-20T01:13:09;101028.94;;;5.76;100.00
54270;BME280;40181;51.560;13.000;2023-04-20T01:15:38;101031.31;;;5.70;100.00
54270;BME280;40181;51.560;13.000;2023-04-20T01:18:07;101029.59;;;5.70;100.00
54270;BME280;40181;51.560;13.000;2023-04-20T01:20:36;101032.78;;;5.63;100.00
54270;BME280;40181;51.560;13.000;2023-04-20T01:23:08;101029.66;;;5.72;100.00
54270;BME280;40181;51.560;13.000;2023-04-20T01:25:37;101024.00;;;5.61;100.00
54270;BME280;40181;51.560;13.000;2023-04-20T01:28:06;101026.97;;;5.70;100.00
54270;BME280;40181;51.560;13.000;2023-04-20T01:30:38;101034.16;;;5.76;100.00
54270;BME280;40181;51.560;13.000;2023-04-20T01:33:07;101027.50;;;5.61;100.00
54270;BME280;40181;51.560;13.000;2023-04-20T01:35:36;101036.28;;;5.63;100.00
54270;BME280;40181;51.560;13.000;2023-04-20T01:38:08;101030.22;;;5.64;100.00
54270;BME280;40181;51.560;13.000;2023-04-20T01:40:38;101025.72;;;5.60;100.00
54270;BME280;40181;51.560;13.000;2023-04-20T01:43:07;101029.47;;;5.67;100.00
54270;BME280;40181;51.560;13.000;2023-04-20T01:45:36;101023.53;;;5.71;100.00
54270;BME280;40181;51.560;13.000;2023-04-20T01:48:05;101018.94;;;5.64;100.00
54270;BME280;40181;51.560;13.000;2023-04-20T01:50:34;101021.19;;;5.56;100.00
54270;BME280;40181;51.560;13.000;2023-04-20T01:53:03;101023.81;;;5.56;100.00
54270;BME280;40181;51.560;13.000;2023-04-20T01:55:35;101018.75;;;5.59;100.00
54270;BME280;40181;51.560;13.000;2023-04-20T01:58:04;101018.66;;;5.58;100.00
54270;BME280;40181;51.560;13.000;2023-04-20T02:00:33;101024.56;;;5.53;100.00
54270;BME280;40181;51.560;13.000;2023-04-20T02:03:02;101015.59;;;5.47;100.00
54270;BME280;40181;51.560;13.000;2023-04-20T02:05:31;101019.22;;;5.50;100.00
54270;BME280;40181;51.560;13.000;2023-04-20T02:08:00;101029.78;;;5.53;100.00
54270;BME280;40181;51.560;13.000;2023-04-20T02:10:29;101017.91;;;5.60;100.00
54270;BME280;40181;51.560;13.000;2023-04-20T02:13:00;101025.84;;;5.63;100.00
54270;BME280;40181;51.560;13.000;2023-04-20T02:15:29;101018.66;;;5.58;100.00
54270;BME280;40181;51.560;13.000;2023-04-20T02:17:58;101020.13;;;5.51;100.00
54270;BME280;40181;51.560;13.000;2023-04-20T02:20:28;101026.78;;;5.44;100.00
54270;BME280;40181;51.560;13.000;2023-04-20T02:22:57;101033.47;;;5.37;100.00
54270;BME280;40181;51.560;13.000;2023-04-20T02:25:26;101028.88;;;5.32;100.00
54270;BME280;40181;51.560;13.000;2023-04-20T02:27:55;101039.63;;;5.39;100.00
54270;BME280;40181;51.560;13.000;2023-04-20T02:30:27;101037.16;;;5.43;100.00
54270;BME280;40181;51.560;13.000;2023-04-20T02:32:56;101031.88;;;5.41;100.00
54270;BME280;40181;51.560;13.000;2023-04-20T02:35:25;101032.63;;;5.38;100.00
54270;BME280;40181;51.560;13.000;2023-04-20T02:37:54;101025.25;;;5.28;100.00
54270;BME280;40181;51.560;13.000;2023-04-20T02:40:23;101031.50;;;5.32;100.00
54270;BME280;40181;51.560;13.000;2023-04-20T02:42:53;101038.66;;;5.37;100.00
54270;BME280;40181;51.560;13.000;2023-04-20T02:45:22;101032.00;;;5.44;100.00
54270;BME280;40181;51.560;13.000;2023-04-20T02:47:53;101026.78;;;5.44;100.00
54270;BME280;40181;51.560;13.000;2023-04-20T02:50:22;101027.38;;;5.37;100.00
54270;BME280;40181;51.560;13.000;2023-04-20T02:52:51;101040.63;;;5.43;100.00
54270;BME280;40181;51.560;13.000;2023-04-20T02:55:20;101041.91;;;5.32;100.00
54270;BME280;40181;51.560;13.000;2023-04-20T02:57:49;101039.31;;;5.32;100.00
54270;BME280;40181;51.560;13.000;2023-04-20T03:00:19;101043.66;;;5.31;100.00
54270;BME280;40181;51.560;13.000;2023-04-20T03:02:48;101044.00;;;5.19;100.00
54270;BME280;40181;51.560;13.000;2023-04-20T03:05:20;101033.34;;;5.34;100.00
54270;BME280;40181;51.560;13.000;2023-04-20T03:07:50;101029.25;;;5.20;100.00
54270;BME280;40181;51.560;13.000;2023-04-20T03:10:19;101036.44;;;5.25;100.00
54270;BME280;40181;51.560;13.000;2023-04-20T03:12:48;101035.19;;;5.17;100.00
54270;BME280;40181;51.560;13.000;2023-04-20T03:15:17;101041.25;;;5.16;100.00
54270;BME280;40181;51.560;13.000;2023-04-20T03:17:47;101034.00;;;5.09;100.00
54270;BME280;40181;51.560;13.000;2023-04-20T03:20:16;101043.94;;;4.98;100.00
54270;BME280;40181;51.560;13.000;2023-04-20T03:22:47;101043.19;;;4.81;100.00
54270;BME280;40181;51.560;13.000;2023-04-20T03:25:17;101042.16;;;4.97;100.00
54270;BME280;40181;51.560;13.000;2023-04-20T03:27:46;101048.13;;;4.94;100.00
54270;BME280;40181;51.560;13.000;2023-04-20T03:30:15;101043.47;;;4.87;100.00
54270;BME280;40181;51.560;13.000;2023-04-20T03:32:44;101045.19;;;5.06;100.00
54270;BME280;40181;51.560;13.000;2023-04-20T03:35:13;101049.75;;;5.12;100.00
54270;BME280;40181;51.560;13.000;2023-04-20T03:37:42;101044.78;;;4.97;100.00
54270;BME280;40181;51.560;13.000;2023-04-20T03:40:14;101058.88;;;4.82;100.00
54270;BME280;40181;51.560;13.000;2023-04-20T03:42:43;101053.53;;;4.99;100.00
54270;BME280;40181;51.560;13.000;2023-04-20T03:45:12;101056.97;;;4.98;99.97
54270;BME280;40181;51.560;13.000;2023-04-20T03:47:42;101057.00;;;4.99;100.00
54270;BME280;40181;51.560;13.000;2023-04-20T03:50:11;101069.94;;;4.59;100.00
54270;BME280;40181;51.560;13.000;2023-04-20T03:52:40;101064.41;;;4.90;100.00
54270;BME280;40181;51.560;13.000;2023-04-20T03:55:09;101059.16;;;4.89;100.00
54270;BME280;40181;51.560;13.000;2023-04-20T03:57:41;101058.47;;;4.93;99.68
54270;BME280;40181;51.560;13.000;2023-04-20T04:00:11;101064.38;;;4.89;99.69
54270;BME280;40181;51.560;13.000;2023-04-20T04:02:41;101060.44;;;4.98;98.93
54270;BME280;40181;51.560;13.000;2023-04-20T04:05:10;101063.34;;;4.85;98.97
54270;BME280;40181;51.560;13.000;2023-04-20T04:07:39;101064.94;;;4.63;100.00
54270;BME280;40181;51.560;13.000;2023-04-20T04:10:09;101068.34;;;4.80;100.00
54270;BME280;40181;51.560;13.000;2023-04-20T04:12:41;101067.72;;;4.86;100.00
54270;BME280;40181;51.560;13.000;2023-04-20T04:15:10;101065.97;;;4.67;100.00
54270;BME280;40181;51.560;13.000;2023-04-20T04:17:39;101068.78;;;4.52;100.00
54270;BME280;40181;51.560;13.000;2023-04-20T04:20:10;101078.00;;;4.45;100.00
54270;BME280;40181;51.560;13.000;2023-04-20T04:22:40;101079.41;;;4.56;100.00
54270;BME280;40181;51.560;13.000;2023-04-20T04:25:09;101067.34;;;4.59;100.00
54270;BME280;40181;51.560;13.000;2023-04-20T04:27:42;101066.88;;;4.67;99.45
54270;BME280;40181;51.560;13.000;2023-04-20T04:30:12;101067.19;;;4.36;100.00
54270;BME280;40181;51.560;13.000;2023-04-20T04:32:41;101066.69;;;4.45;99.84
54270;BME280;40181;51.560;13.000;2023-04-20T04:35:13;101070.34;;;4.48;99.82
54270;BME280;40181;51.560;13.000;2023-04-20T04:37:42;101064.69;;;4.57;99.65
54270;BME280;40181;51.560;13.000;2023-04-20T04:40:12;101074.16;;;4.37;99.88
54270;BME280;40181;51.560;13.000;2023-04-20T04:42:45;101068.66;;;4.49;99.59
54270;BME280;40181;51.560;13.000;2023-04-20T04:45:15;101089.03;;;4.39;99.83
54270;BME280;40181;51.560;13.000;2023-04-20T04:47:44;101078.56;;;4.57;99.71
54270;BME280;40181;51.560;13.000;2023-04-20T04:50:13;101079.66;;;4.43;100.00
54270;BME280;40181;51.560;13.000;2023-04-20T04:52:43;101087.31;;;4.40;100.00
54270;BME280;40181;51.560;13.000;2023-04-20T04:55:12;101092.28;;;4.35;100.00
54270;BME280;40181;51.560;13.000;2023-04-20T04:57:41;101085.28;;;4.52;100.00
54270;BME280;40181;51.560;13.000;2023-04-20T05:00:14;101093.19;;;4.36;100.00
54270;BME280;40181;51.560;13.000;2023-04-20T05:02:44;101092.88;;;4.29;100.00
54270;BME280;40181;51.560;13.000;2023-04-20T05:05:13;101088.13;;;4.39;100.00
54270;BME280;40181;51.560;13.000;2023-04-20T05:07:56;101095.72;;;4.34;100.00
54270;BME280;40181;51.560;13.000;2023-04-20T05:10:25;101103.72;;;4.39;100.00
54270;BME280;40181;51.560;13.000;2023-04-20T05:12:56;101112.81;;;4.29;100.00
54270;BME280;40181;51.560;13.000;2023-04-20T05:15:26;101103.13;;;4.45;100.00
54270;BME280;40181;51.560;13.000;2023-04-20T05:17:55;101120.06;;;4.54;100.00
54270;BME280;40181;51.560;13.000;2023-04-20T05:20:24;101114.75;;;4.51;100.00
54270;BME280;40181;51.560;13.000;2023-04-20T05:22:53;101107.88;;;4.53;100.00
54270;BME280;40181;51.560;13.000;2023-04-20T05:25:22;101110.34;;;4.50;100.00
54270;BME280;40181;51.560;13.000;2023-04-20T05:27:51;101119.78;;;4.48;100.00
54270;BME280;40181;51.560;13.000;2023-04-20T05:30:23;101125.41;;;4.57;100.00
54270;BME280;40181;51.560;13.000;2023-04-20T05:32:52;101128.19;;;4.61;100.00
54270;BME280;40181;51.560;13.000;2023-04-20T05:35:21;101137.78;;;4.62;100.00
54270;BME280;40181;51.560;13.000;2023-04-20T05:37:50;101131.25;;;4.71;100.00
54270;BME280;40181;51.560;13.000;2023-04-20T05:40:19;101132.09;;;4.70;100.00
54270;BME280;40181;51.560;13.000;2023-04-20T05:42:48;101138.97;;;4.50;100.00
54270;BME280;40181;51.560;13.000;2023-04-20T05:45:17;101132.69;;;4.65;100.00
54270;BME280;40181;51.560;13.000;2023-04-20T05:47:55;101134.44;;;4.46;100.00
54270;BME280;40181;51.560;13.000;2023-04-20T05:50:25;101144.00;;;4.47;100.00
54270;BME280;40181;51.560;13.000;2023-04-20T05:52:55;101145.50;;;4.60;100.00
54270;BME280;40181;51.560;13.000;2023-04-20T05:55:24;101137.16;;;4.49;100.00
54270;BME280;40181;51.560;13.000;2023-04-20T05:57:53;101140.63;;;4.68;100.00
54270;BME280;40181;51.560;13.000;2023-04-20T06:00:22;101147.97;;;4.57;100.00
54270;BME280;40181;51.560;13.000;2023-04-20T06:02:51;101137.59;;;4.59;100.00
54270;BME280;40181;51.560;13.000;2023-04-20T06:05:23;101132.25;;;4.55;100.00
54270;BME280;40181;51.560;13.000;2023-04-20T06:07:52;101144.28;;;4.71;99.66
54270;BME280;40181;51.560;13.000;2023-04-20T06:10:23;101145.75;;;4.84;100.00
54270;BME280;40181;51.560;13.000;2023-04-20T06:12:56;101135.81;;;4.76;100.00
54270;BME280;40181;51.560;13.000;2023-04-20T06:15:25;101141.75;;;4.73;100.00
54270;BME280;40181;51.560;13.000;2023-04-20T06:17:57;101138.41;;;4.76;100.00
54270;BME280;40181;51.560;13.000;2023-04-20T06:20:26;101138.19;;;4.71;100.00
54270;BME280;40181;51.560;13.000;2023-04-20T06:22:55;101136.56;;;4.73;100.00
54270;BME280;40181;51.560;13.000;2023-04-20T06:25:24;101131.16;;;4.88;100.00
54270;BME280;40181;51.560;13.000;2023-04-20T06:27:53;101131.69;;;4.81;99.11
54270;BME280;40181;51.560;13.000;2023-04-20T06:30:22;101126.69;;;4.85;99.11
54270;BME280;40181;51.560;13.000;2023-04-20T06:32:51;101132.72;;;4.84;99.14
54270;BME280;40181;51.560;13.000;2023-04-20T06:35:22;101132.69;;;4.83;98.36
54270;BME280;40181;51.560;13.000;2023-04-20T06:37:51;101139.19;;;4.93;100.00
54270;BME280;40181;51.560;13.000;2023-04-20T06:40:21;101132.81;;;5.06;100.00
54270;BME280;40181;51.560;13.000;2023-04-20T06:42:53;101138.72;;;5.02;97.82
54270;BME280;40181;51.560;13.000;2023-04-20T06:45:22;101138.78;;;5.03;97.11
54270;BME280;40181;51.560;13.000;2023-04-20T06:47:51;101138.94;;;5.06;97.68
54270;BME280;40181;51.560;13.000;2023-04-20T06:50:22;101157.16;;;5.06;97.65
54270;BME280;40181;51.560;13.000;2023-04-20T06:52:51;101148.19;;;5.19;98.78
54270;BME280;40181;51.560;13.000;2023-04-20T06:55:20;101155.72;;;5.13;98.15
54270;BME280;40181;51.560;13.000;2023-04-20T06:57:50;101150.59;;;5.15;98.04
54270;BME280;40181;51.560;13.000;2023-04-20T07:00:19;101159.44;;;5.18;99.29
54270;BME280;40181;51.560;13.000;2023-04-20T07:02:49;101154.03;;;5.14;99.20
54270;BME280;40181;51.560;13.000;2023-04-20T07:05:19;101154.34;;;5.02;99.16
54270;BME280;40181;51.560;13.000;2023-04-20T07:07:50;101153.31;;;5.18;99.72
54270;BME280;40181;51.560;13.000;2023-04-20T07:10:19;101165.53;;;5.19;100.00
54270;BME280;40181;51.560;13.000;2023-04-20T07:12:48;101160.19;;;5.16;98.96
54270;BME280;40181;51.560;13.000;2023-04-20T07:15:17;101163.94;;;5.22;98.60
54270;BME280;40181;51.560;13.000;2023-04-20T07:17:47;101152.06;;;5.29;98.72
54270;BME280;40181;51.560;13.000;2023-04-20T07:20:16;101156.75;;;5.36;98.30
54270;BME280;40181;51.560;13.000;2023-04-20T07:22:45;101156.88;;;5.39;99.59
54270;BME280;40181;51.560;13.000;2023-04-20T07:25:16;101155.72;;;5.33;98.09
54270;BME280;40181;51.560;13.000;2023-04-20T07:27:45;101168.19;;;5.40;97.68
54270;BME280;40181;51.560;13.000;2023-04-20T07:30:14;101176.75;;;5.57;98.38
54270;BME280;40181;51.560;13.000;2023-04-20T07:32:43;101167.09;;;5.35;97.68
54270;BME280;40181;51.560;13.000;2023-04-20T07:35:12;101170.47;;;5.32;96.90
54270;BME280;40181;51.560;13.000;2023-04-20T07:37:42;101168.13;;;5.38;98.10
54270;BME280;40181;51.560;13.000;2023-04-20T07:40:12;101158.94;;;5.47;96.35
54270;BME280;40181;51.560;13.000;2023-04-20T07:42:43;101167.38;;;5.41;97.09
54270;BME280;40181;51.560;13.000;2023-04-20T07:45:12;101177.09;;;5.65;97.43
54270;BME280;40181;51.560;13.000;2023-04-20T07:47:41;101167.44;;;5.62;97.35
54270;BME280;40181;51.560;13.000;2023-04-20T07:50:11;101169.69;;;5.74;97.35
54270;BME280;40181;51.560;13.000;2023-04-20T07:52:40;101168.13;;;5.99;97.52
54270;BME280;40181;51.560;13.000;2023-04-20T07:55:11;101180.16;;;5.76;96.15
54270;BME280;40181;51.560;13.000;2023-04-20T07:57:44;101184.78;;;6.03;96.30
54270;BME280;40181;51.560;13.000;2023-04-20T08:00:14;101182.16;;;5.81;97.07
54270;BME280;40181;51.560;13.000;2023-04-20T08:02:43;101176.00;;;5.60;97.08
54270;BME280;40181;51.560;13.000;2023-04-20T08:05:12;101176.41;;;5.69;98.04
54270;BME280;40181;51.560;13.000;2023-04-20T08:07:41;101182.97;;;5.80;97.29
54270;BME280;40181;51.560;13.000;2023-04-20T08:10:10;101182.63;;;5.73;95.59
54270;BME280;40181;51.560;13.000;2023-04-20T08:12:39;101167.09;;;5.95;95.44
54270;BME280;40181;51.560;13.000;2023-04-20T08:15:11;101178.72;;;5.82;95.35
54270;BME280;40181;51.560;13.000;2023-04-20T08:17:40;101185.84;;;5.87;93.65
54270;BME280;40181;51.560;13.000;2023-04-20T08:20:10;101197.28;;;5.49;93.88
54270;BME280;40181;51.560;13.000;2023-04-20T08:22:39;101170.06;;;5.43;95.18
54270;BME280;40181;51.560;13.000;2023-04-20T08:25:08;101170.72;;;5.78;95.04
54270;BME280;40181;51.560;13.000;2023-04-20T08:27:37;101172.69;;;5.84;95.20
54270;BME280;40181;51.560;13.000;2023-04-20T08:30:07;101180.97;;;5.75;94.91
54270;BME280;40181;51.560;13.000;2023-04-20T08:32:39;101169.72;;;5.95;95.59
54270;BME280;40181;51.560;13.000;2023-04-20T08:35:08;101178.13;;;5.68;95.46
54270;BME280;40181;51.560;13.000;2023-04-20T08:37:37;101177.16;;;5.66;95.99
54270;BME280;40181;51.560;13.000;2023-04-20T08:40:08;101178.19;;;5.70;94.74
54270;BME280;40181;51.560;13.000;2023-04-20T08:42:38;101174.00;;;5.74;94.33
54270;BME280;40181;51.560;13.000;2023-04-20T08:45:07;101175.13;;;5.80;94.59
54270;BME280;40181;51.560;13.000;2023-04-20T08:47:39;101170.59;;;5.96;94.94
54270;BME280;40181;51.560;13.000;2023-04-20T08:50:10;101184.22;;;5.69;94.66
54270;BME280;40181;51.560;13.000;2023-04-20T08:52:39;101174.25;;;5.80;94.70
54270;BME280;40181;51.560;13.000;2023-04-20T08:55:08;101172.34;;;5.76;95.42
54270;BME280;40181;51.560;13.000;2023-04-20T08:57:37;101175.41;;;5.87;94.86
54270;BME280;40181;51.560;13.000;2023-04-20T09:00:07;101170.13;;;5.85;93.91
54270;BME280;40181;51.560;13.000;2023-04-20T09:02:51;101185.94;;;5.68;94.31
54270;BME280;40181;51.560;13.000;2023-04-20T09:05:24;101167.53;;;6.05;94.41
54270;BME280;40181;51.560;13.000;2023-04-20T09:07:56;101166.81;;;6.09;93.90
54270;BME280;40181;51.560;13.000;2023-04-20T09:10:38;101178.44;;;6.17;93.63
54270;BME280;40181;51.560;13.000;2023-04-20T09:13:08;101169.97;;;6.02;92.31
54270;BME280;40181;51.560;13.000;2023-04-20T09:15:50;101178.16;;;6.09;92.66
54270;BME280;40181;51.560;13.000;2023-04-20T09:18:19;101169.50;;;6.11;93.35
54270;BME280;40181;51.560;13.000;2023-04-20T09:20:49;101180.94;;;6.14;94.03
54270;BME280;40181;51.560;13.000;2023-04-20T09:23:19;101180.03;;;6.35;94.79
54270;BME280;40181;51.560;13.000;2023-04-20T09:25:50;101187.16;;;6.39;94.59
54270;BME280;40181;51.560;13.000;2023-04-20T09:28:19;101182.00;;;6.19;95.34
54270;BME280;40181;51.560;13.000;2023-04-20T09:30:51;101181.31;;;6.02;94.92
54270;BME280;40181;51.560;13.000;2023-04-20T09:33:26;101177.13;;;6.27;95.18
54270;BME280;40181;51.560;13.000;2023-04-20T09:36:02;101180.88;;;6.34;93.70
54270;BME280;40181;51.560;13.000;2023-04-20T09:38:32;101181.50;;;6.49;92.11
54270;BME280;40181;51.560;13.000;2023-04-20T09:41:01;101182.03;;;6.63;93.68
54270;BME280;40181;51.560;13.000;2023-04-20T09:43:31;101182.50;;;6.76;90.81
54270;BME280;40181;51.560;13.000;2023-04-20T09:46:06;101179.56;;;6.89;91.52
54270;BME280;40181;51.560;13.000;2023-04-20T09:48:35;101184.25;;;6.75;91.55
54270;BME280;40181;51.560;13.000;2023-04-20T09:51:05;101179.00;;;6.98;91.12
54270;BME280;40181;51.560;13.000;2023-04-20T09:53:35;101176.06;;;6.89;91.41
54270;BME280;40181;51.560;13.000;2023-04-20T09:56:06;101187.84;;;7.02;91.94
54270;BME280;40181;51.560;13.000;2023-04-20T09:58:35;101172.34;;;7.06;90.82
54270;BME280;40181;51.560;13.000;2023-04-20T10:01:10;101189.88;;;7.09;91.67
54270;BME280;40181;51.560;13.000;2023-04-20T10:03:40;101186.84;;;7.21;91.39
54270;BME280;40181;51.560;13.000;2023-04-20T10:06:17;101181.63;;;7.21;92.19
54270;BME280;40181;51.560;13.000;2023-04-20T10:08:47;101186.44;;;7.34;92.63
54270;BME280;40181;51.560;13.000;2023-04-20T10:11:27;101176.94;;;7.37;93.12
54270;BME280;40181;51.560;13.000;2023-04-20T10:13:58;101173.88;;;7.24;94.20
54270;BME280;40181;51.560;13.000;2023-04-20T10:16:31;101175.88;;;7.07;94.42
54270;BME280;40181;51.560;13.000;2023-04-20T10:19:01;101181.81;;;7.27;95.31
54270;BME280;40181;51.560;13.000;2023-04-20T10:21:32;101174.38;;;7.14;94.99
54270;BME280;40181;51.560;13.000;2023-04-20T10:24:11;101173.25;;;7.07;94.94
54270;BME280;40181;51.560;13.000;2023-04-20T10:26:42;101179.03;;;7.23;95.57
54270;BME280;40181;51.560;13.000;2023-04-20T10:29:22;101162.84;;;7.09;95.98
54270;BME280;40181;51.560;13.000;2023-04-20T10:31:54;101155.31;;;6.94;97.85
54270;BME280;40181;51.560;13.000;2023-04-20T10:34:30;101157.78;;;7.13;97.86
54270;BME280;40181;51.560;13.000;2023-04-20T10:37:06;101155.59;;;7.24;98.84
54270;BME280;40181;51.560;13.000;2023-04-20T10:39:43;101153.03;;;7.26;98.47
54270;BME280;40181;51.560;13.000;2023-04-20T10:42:12;101149.59;;;7.27;99.66
54270;BME280;40181;51.560;13.000;2023-04-20T10:44:47;101149.94;;;7.13;96.59
54270;BME280;40181;51.560;13.000;2023-04-20T10:47:28;101131.41;;;7.05;98.70
54270;BME280;40181;51.560;13.000;2023-04-20T10:50:06;101129.19;;;7.16;99.48
54270;BME280;40181;51.560;13.000;2023-04-20T10:52:38;101133.00;;;7.26;100.00
54270;BME280;40181;51.560;13.000;2023-04-20T10:55:17;101134.50;;;7.19;100.00
54270;BME280;40181;51.560;13.000;2023-04-20T10:57:47;101136.84;;;7.12;100.00
54270;BME280;40181;51.560;13.000;2023-04-20T11:00:18;101151.53;;;7.32;100.00
54270;BME280;40181;51.560;13.000;2023-04-20T11:02:52;101130.06;;;7.17;100.00
54270;BME280;40181;51.560;13.000;2023-04-20T11:05:24;101139.56;;;6.90;100.00
54270;BME280;40181;51.560;13.000;2023-04-20T11:07:55;101134.84;;;7.04;100.00
54270;BME280;40181;51.560;13.000;2023-04-20T11:10:36;101141.44;;;6.95;100.00
54270;BME280;40181;51.560;13.000;2023-04-20T11:13:18;101134.50;;;6.72;100.00
54270;BME280;40181;51.560;13.000;2023-04-20T11:15:47;101141.84;;;6.83;100.00
54270;BME280;40181;51.560;13.000;2023-04-20T11:18:19;101130.41;;;6.79;100.00
54270;BME280;40181;51.560;13.000;2023-04-20T11:20:51;101127.25;;;6.65;100.00
54270;BME280;40181;51.560;13.000;2023-04-20T11:23:23;101128.41;;;6.72;100.00
54270;BME280;40181;51.560;13.000;2023-04-20T11:25:55;101124.00;;;6.71;100.00
54270;BME280;40181;51.560;13.000;2023-04-20T11:28:24;101126.19;;;6.83;100.00
54270;BME280;40181;51.560;13.000;2023-04-20T11:30:58;101115.13;;;6.90;100.00
54270;BME280;40181;51.560;13.000;2023-04-20T11:33:31;101120.13;;;6.84;100.00
54270;BME280;40181;51.560;13.000;2023-04-20T11:36:03;101118.72;;;6.69;100.00
54270;BME280;40181;51.560;13.000;2023-04-20T11:38:34;101119.16;;;6.80;100.00
54270;BME280;40181;51.560;13.000;2023-04-20T11:41:03;101123.78;;;6.64;100.00
54270;BME280;40181;51.560;13.000;2023-04-20T11:43:32;101117.53;;;6.61;100.00
54270;BME280;40181;51.560;13.000;2023-04-20T11:46:01;101120.31;;;6.43;100.00
54270;BME280;40181;51.560;13.000;2023-04-20T11:48:34;101128.47;;;6.50;100.00
54270;BME280;40181;51.560;13.000;2023-04-20T11:51:03;101121.38;;;6.48;100.00
54270;BME280;40181;51.560;13.000;2023-04-20T11:53:32;101121.03;;;6.61;100.00
54270;BME280;40181;51.560;13.000;2023-04-20T11:56:02;101122.59;;;6.56;100.00
54270;BME280;40181;51.560;13.000;2023-04-20T11:58:31;101116.03;;;6.68;100.00
54270;BME280;40181;51.560;13.000;2023-04-20T12:01:00;101090.28;;;6.77;100.00
54270;BME280;40181;51.560;13.000;2023-04-20T12:03:29;101102.81;;;6.63;100.00
54270;BME280;40181;51.560;13.000;2023-04-20T12:06:01;101089.84;;;6.64;100.00
54270;BME280;40181;51.560;13.000;2023-04-20T12:08:30;101099.06;;;6.79;100.00
54270;BME280;40181;51.560;13.000;2023-04-20T12:11:00;101099.13;;;6.81;100.00
54270;BME280;40181;51.560;13.000;2023-04-20T12:13:29;101104.09;;;6.74;100.00
54270;BME280;40181;51.560;13.000;2023-04-20T12:15:58;101104.09;;;6.74;100.00
54270;BME280;40181;51.560;13.000;2023-04-20T12:18:27;101094.06;;;6.85;100.00
54270;BME280;40181;51.560;13.000;2023-04-20T12:20:56;101092.38;;;6.86;100.00
54270;BME280;40181;51.560;13.000;2023-04-20T12:23:27;101110.56;;;6.84;100.00
54270;BME280;40181;51.560;13.000;2023-04-20T12:25:57;101092.56;;;6.92;100.00
54270;BME280;40181;51.560;13.000;2023-04-20T12:28:26;101097.75;;;6.90;100.00
54270;BME280;40181;51.560;13.000;2023-04-20T12:30:55;101100.03;;;6.58;100.00
54270;BME280;40181;51.560;13.000;2023-04-20T12:33:24;101097.53;;;6.84;100.00
54270;BME280;40181;51.560;13.000;2023-04-20T12:35:53;101092.56;;;6.92;100.00
54270;BME280;40181;51.560;13.000;2023-04-20T12:38:22;101102.59;;;7.04;100.00
54270;BME280;40181;51.560;13.000;2023-04-20T12:40:54;101088.97;;;7.13;100.00
54270;BME280;40181;51.560;13.000;2023-04-20T12:43:23;101087.38;;;7.16;100.00
54270;BME280;40181;51.560;13.000;2023-04-20T12:45:52;101097.94;;;6.95;100.00
54270;BME280;40181;51.560;13.000;2023-04-20T12:48:21;101084.31;;;7.04;100.00
54270;BME280;40181;51.560;13.000;2023-04-20T12:50:51;101090.09;;;6.95;100.00
54270;BME280;40181;51.560;13.000;2023-04-20T12:53:20;101091.13;;;7.00;100.00
54270;BME280;40181;51.560;13.000;2023-04-20T12:55:49;101077.69;;;7.14;100.00
54270;BME280;40181;51.560;13.000;2023-04-20T12:58:20;101066.56;;;7.19;100.00